Time;durP1;ratioP1;P1;durP2;ratioP2;P2;SDS_P1;SDS_P2;PMS_P1;PMS_P2;Temp;Humidity;BMP_temperature;BMP_pressure;BME280_temperature;BME280_humidity;BME280_pressure;Samples;Min_cycle;Max_cycle;Signal;HPM_P1;HPM_P2
2021/12/28 00:02:23;;;;;;;1.00;1.00;;;10.40;99.90;10.20;99163.00;;;;4995845;28;20188;-68
2021/12/28 00:04:57;;;;;;;0.57;0.57;;;10.40;99.90;10.20;99144.00;;;;4996678;28;20168;-68
2021/12/28 00:07:37;;;;;;;2.47;0.50;;;10.40;99.90;10.20;99149.00;;;;4996323;28;20174;-68
2021/12/28 00:10:16;;;;;;;0.40;0.40;;;10.50;99.90;10.30;99148.00;;;;5011590;28;20215;-68
2021/12/28 00:12:49;;;;;;;4.77;2.17;;;10.50;99.90;10.20;99140.00;;;;4996414;28;20602;-68
2021/12/28 00:18:04;;;;;;;7.63;2.13;;;10.60;99.90;10.50;99098.00;;;;5010395;28;20191;-68
2021/12/28 00:20:41;;;;;;;0.83;0.83;;;10.60;99.90;10.40;99129.00;;;;4995942;28;20171;-68
2021/12/28 00:23:19;;;;;;;6.30;1.00;;;10.60;99.90;10.30;99127.00;;;;4995891;28;20189;-68
2021/12/28 00:25:57;;;;;;;10.87;2.07;;;10.60;99.90;10.40;99137.00;;;;5011058;28;20767;-68
2021/12/28 00:28:33;;;;;;;3.40;0.77;;;10.60;99.90;10.50;99138.00;;;;4995988;28;20288;-67
2021/12/28 00:31:13;;;;;;;0.53;0.53;;;10.60;99.90;10.50;99126.00;;;;4995345;28;20561;-68
2021/12/28 00:33:55;;;;;;;1.67;0.80;;;10.60;99.90;10.60;99123.00;;;;5010315;28;20180;-68
2021/12/28 00:36:39;;;;;;;0.40;0.40;;;10.70;99.90;10.60;99120.00;;;;5010226;28;20176;-68
2021/12/28 00:39:19;;;;;;;0.30;0.30;;;10.70;99.90;10.80;99110.00;;;;5010146;28;20180;-68
2021/12/28 00:41:56;;;;;;;3.30;0.90;;;10.80;99.90;10.80;99111.00;;;;4995789;28;20179;-68
2021/12/28 00:44:35;;;;;;;0.90;0.90;;;10.80;99.90;10.60;99078.00;;;;5010627;28;20270;-67
2021/12/28 00:47:11;;;;;;;0.40;0.40;;;10.80;99.90;10.50;99107.00;;;;5011326;28;20261;-68
2021/12/28 00:49:43;;;;;;;0.50;0.50;;;10.80;99.90;10.60;99105.00;;;;5010365;28;20180;-68
2021/12/28 00:52:25;;;;;;;3.40;1.30;;;10.70;99.90;10.50;99089.00;;;;5010558;28;20194;-68
2021/12/28 00:55:02;;;;;;;0.30;0.30;;;10.70;99.90;10.50;99104.00;;;;5009181;28;20641;-67
2021/12/28 00:57:38;;;;;;;0.83;0.83;;;10.70;99.90;10.50;99099.00;;;;5010120;28;20185;-68
2021/12/28 01:00:19;;;;;;;0.90;0.53;;;10.70;99.90;10.40;99097.00;;;;5010252;28;20189;-68
2021/12/28 01:02:54;;;;;;;1.13;0.60;;;10.70;99.90;10.40;99096.00;;;;4994205;28;20181;-68
2021/12/28 01:05:30;;;;;;;1.37;1.27;;;10.60;99.90;10.20;99106.00;;;;4994248;28;20186;-68
2021/12/28 01:08:07;;;;;;;0.60;0.60;;;10.60;99.90;10.30;99094.00;;;;5010325;28;20190;-68
2021/12/28 01:10:50;;;;;;;0.40;0.40;;;10.50;99.90;10.30;99100.00;;;;4995320;28;20191;-69
2021/12/28 01:13:29;;;;;;;2.50;0.80;;;10.50;99.90;10.30;99087.00;;;;4995180;28;20645;-68
2021/12/28 01:16:03;;;;;;;4.20;1.97;;;10.50;99.90;10.40;99086.00;;;;5009850;28;20184;-69
2021/12/28 01:18:41;;;;;;;4.97;1.37;;;10.50;99.90;10.20;99095.00;;;;5010091;28;20185;-68
2021/12/28 01:21:20;;;;;;;2.43;1.83;;;10.50;99.90;10.30;99076.00;;;;5010193;28;20238;-67
2021/12/28 01:24:00;;;;;;;2.00;1.23;;;10.40;99.90;10.40;99082.00;;;;5009941;28;20198;-67
2021/12/28 01:26:37;;;;;;;0.60;0.60;;;10.50;99.90;10.40;99089.00;;;;4993426;28;20277;-67
2021/12/28 01:29:16;;;;;;;0.63;0.63;;;10.50;99.90;10.30;99082.00;;;;4993368;28;20184;-68
2021/12/28 01:31:55;;;;;;;1.30;1.20;;;10.40;99.90;10.70;99078.00;;;;5009495;28;20214;-67
2021/12/28 01:34:29;;;;;;;1.67;1.33;;;10.50;99.90;10.60;99076.00;;;;5009737;28;20188;-67
2021/12/28 01:37:03;;;;;;;3.27;0.83;;;10.60;99.90;10.50;99080.00;;;;5009687;28;20188;-67
2021/12/28 01:39:37;;;;;;;0.97;0.50;;;10.60;99.90;10.40;99071.00;;;;4994356;28;20183;-66
2021/12/28 01:42:16;;;;;;;2.00;1.60;;;10.50;99.90;10.40;99070.00;;;;5009799;28;20184;-66
2021/12/28 01:44:55;;;;;;;0.80;0.80;;;10.50;99.90;10.40;99070.00;;;;4994082;28;20265;-67
2021/12/28 01:47:28;;;;;;;0.43;0.43;;;10.40;99.90;10.30;99076.00;;;;4995009;28;20159;-67
2021/12/28 01:50:02;;;;;;;1.03;0.93;;;10.40;99.90;10.30;99082.00;;;;5009740;28;20182;-67
2021/12/28 01:52:39;;;;;;;0.40;0.40;;;10.40;99.90;10.20;99061.00;;;;4994227;28;20242;-67
2021/12/28 01:55:14;;;;;;;0.60;0.50;;;10.40;99.90;10.30;99081.00;;;;5009379;28;20178;-67
2021/12/28 01:57:56;;;;;;;0.80;0.73;;;10.40;99.90;10.20;99076.00;;;;5008265;28;20203;-68
2021/12/28 02:00:29;;;;;;;1.80;0.97;;;10.40;99.90;10.30;99075.00;;;;5009194;28;20215;-68
2021/12/28 02:03:09;;;;;;;0.77;0.63;;;10.40;99.90;10.30;99038.00;;;;5009363;28;20672;-68
2021/12/28 02:05:44;;;;;;;0.77;0.50;;;10.40;99.90;10.50;99083.00;;;;5009013;28;20191;-68
2021/12/28 02:08:16;;;;;;;1.17;1.13;;;10.50;99.90;10.60;99064.00;;;;5009126;28;20171;-68
2021/12/28 02:10:55;;;;;;;19.93;1.23;;;10.50;99.90;10.50;99073.00;;;;5009491;28;20176;-68
2021/12/28 02:13:36;;;;;;;0.70;0.70;;;10.50;99.90;10.40;99049.00;;;;5009236;28;20187;-68
2021/12/28 02:16:17;;;;;;;0.47;0.47;;;10.50;99.90;10.30;99074.00;;;;4992886;28;20187;-68
2021/12/28 02:18:51;;;;;;;0.40;0.40;;;10.50;99.90;10.40;99058.00;;;;5009049;28;20650;-68
2021/12/28 02:21:31;;;;;;;0.53;0.40;;;10.50;99.90;10.30;99082.00;;;;5009403;28;20205;-68
2021/12/28 02:24:10;;;;;;;1.73;0.70;;;10.40;99.90;10.20;99073.00;;;;5009194;28;20190;-68
2021/12/28 02:26:44;;;;;;;0.40;0.40;;;10.50;99.90;10.50;99062.00;;;;5008355;28;20180;-68
2021/12/28 02:29:19;;;;;;;1.13;0.93;;;10.50;99.90;10.40;99075.00;;;;4994141;28;20212;-68
2021/12/28 02:31:55;;;;;;;0.40;0.40;;;10.60;99.90;10.40;99083.00;;;;5008460;28;20218;-68
2021/12/28 02:34:32;;;;;;;0.50;0.50;;;10.60;99.90;10.50;99082.00;;;;5009220;28;20554;-68
2021/12/28 02:37:09;;;;;;;3.60;1.43;;;10.50;99.90;10.40;99072.00;;;;5008514;28;20180;-68
2021/12/28 02:39:44;;;;;;;0.50;0.47;;;10.60;99.90;10.50;99055.00;;;;5008570;28;20309;-68
2021/12/28 02:42:24;;;;;;;2.90;0.63;;;10.60;99.90;10.40;99085.00;;;;5008586;28;20195;-68
2021/12/28 02:45:10;;;;;;;0.50;0.50;;;10.60;99.90;10.50;99090.00;;;;5009023;28;20193;-67
2021/12/28 02:48:00;;;;;;;0.73;0.63;;;10.60;99.90;10.40;99092.00;;;;5008680;28;20652;-67
2021/12/28 02:50:41;;;;;;;0.53;0.53;;;10.60;99.90;10.30;99043.00;;;;5008817;28;20275;-67
2021/12/28 02:53:16;;;;;;;0.50;0.50;;;10.60;99.90;10.50;99080.00;;;;5008818;28;20655;-68
2021/12/28 02:55:48;;;;;;;1.00;0.83;;;10.60;99.90;10.40;99079.00;;;;4993390;28;20190;-67
2021/12/28 02:59:02;;;;;;;1.50;0.73;;;10.60;99.90;10.50;99080.00;;;;5008793;28;20179;-68
2021/12/28 03:01:40;;;;;;;0.40;0.40;;;10.50;99.90;10.50;99078.00;;;;4975526;28;20286;-67
2021/12/28 03:04:16;;;;;;;0.50;0.50;;;10.60;99.90;10.60;99042.00;;;;4991555;28;20234;-68
2021/12/28 03:06:54;;;;;;;0.73;0.53;;;10.60;99.90;10.30;99071.00;;;;5008520;28;20178;-67
2021/12/28 03:09:32;;;;;;;0.50;0.50;;;10.60;99.90;10.40;99066.00;;;;4993584;28;20168;-67
2021/12/28 03:12:12;;;;;;;1.47;0.90;;;10.50;99.90;10.30;99071.00;;;;5008317;28;20726;-67
2021/12/28 03:14:52;;;;;;;0.30;0.30;;;10.50;99.90;10.20;99068.00;;;;4993517;28;20207;-67
2021/12/28 03:17:27;;;;;;;0.40;0.40;;;10.40;99.90;10.30;99058.00;;;;5008345;28;20238;-67
2021/12/28 03:20:04;;;;;;;0.30;0.30;;;10.40;99.90;10.40;99038.00;;;;5011817;28;20192;-67
2021/12/28 03:22:42;;;;;;;1.33;1.10;;;10.50;99.90;10.30;99041.00;;;;4997367;28;20637;-68
2021/12/28 03:25:16;;;;;;;3.07;0.87;;;10.50;99.90;10.20;99055.00;;;;5012051;28;20187;-68
2021/12/28 03:27:50;;;;;;;6.50;0.87;;;10.40;99.90;10.20;99065.00;;;;5012121;28;20182;-67
2021/12/28 03:30:29;;;;;;;0.63;0.63;;;10.40;99.90;10.20;99056.00;;;;4997266;28;20174;-67
2021/12/28 03:33:06;;;;;;;7.93;0.77;;;10.40;99.90;10.40;99058.00;;;;5011537;28;20732;-68
2021/12/28 03:35:40;;;;;;;0.30;0.30;;;10.50;99.90;10.20;99055.00;;;;5011753;28;20249;-67
2021/12/28 03:38:09;;;;;;;4.53;0.70;;;10.40;99.90;10.40;99049.00;;;;5011769;28;20184;-67
2021/12/28 03:40:44;;;;;;;0.50;0.50;;;10.40;99.90;10.30;99048.00;;;;4996952;28;20164;-67
2021/12/28 03:43:20;;;;;;;0.63;0.63;;;10.40;99.90;10.30;99050.00;;;;5011847;28;20667;-68
2021/12/28 03:45:59;;;;;;;0.37;0.37;;;10.40;99.90;10.30;99047.00;;;;4995690;28;20180;-67
2021/12/28 03:48:36;;;;;;;2.00;0.47;;;10.40;99.90;10.40;99048.00;;;;5011615;28;20173;-67
2021/12/28 03:51:10;;;;;;;2.23;0.90;;;10.50;99.90;10.40;99043.00;;;;5011801;28;20188;-67
2021/12/28 03:53:48;;;;;;;0.70;0.70;;;10.50;99.90;10.40;99034.00;;;;5011370;28;20181;-67
2021/12/28 03:56:26;;;;;;;0.37;0.37;;;10.50;99.90;10.40;99028.00;;;;5011936;28;20188;-67
2021/12/28 03:59:02;;;;;;;0.43;0.43;;;10.50;99.90;10.40;99029.00;;;;4996665;28;20182;-67
2021/12/28 04:01:38;;;;;;;1.53;0.97;;;10.50;99.90;10.40;99032.00;;;;4996691;28;20231;-67
2021/12/28 04:04:15;;;;;;;0.40;0.40;;;10.50;99.90;10.40;99025.00;;;;5011821;28;20172;-67
2021/12/28 04:06:52;;;;;;;0.30;0.30;;;10.50;99.90;10.40;99018.00;;;;5011043;28;20188;-67
2021/12/28 04:12:25;;;;;;;3.40;0.70;;;10.50;99.90;10.30;99039.00;;;;5008869;28;20232;-67
2021/12/28 04:15:03;;;;;;;0.40;0.40;;;10.40;99.90;10.50;99027.00;;;;5010637;28;20223;-67
2021/12/28 04:17:44;;;;;;;0.30;0.30;;;10.50;99.90;10.30;99028.00;;;;5011105;28;20189;-68
2021/12/28 04:20:22;;;;;;;1.13;0.50;;;10.40;99.90;10.30;99033.00;;;;4995161;28;20161;-68
2021/12/28 04:22:56;;;;;;;0.30;0.30;;;10.40;99.90;10.20;99013.00;;;;5010913;28;20176;-68
2021/12/28 04:25:33;;;;;;;0.80;0.70;;;10.40;99.90;10.30;99024.00;;;;5011313;28;20177;-68
2021/12/28 04:28:16;;;;;;;0.50;0.50;;;10.40;99.90;10.10;99013.00;;;;4995682;28;20186;-68
2021/12/28 04:30:53;;;;;;;0.30;0.30;;;10.40;99.90;10.30;99015.00;;;;4995771;28;20180;-68
2021/12/28 04:33:30;;;;;;;0.50;0.50;;;10.40;99.90;10.20;99018.00;;;;4995918;28;20208;-68
2021/12/28 04:36:02;;;;;;;0.40;0.40;;;10.40;99.90;10.30;98976.00;;;;4995853;28;20657;-68
2021/12/28 04:38:41;;;;;;;0.30;0.30;;;10.40;99.90;10.30;99024.00;;;;4995464;28;20520;-68
2021/12/28 04:41:21;;;;;;;0.67;0.53;;;10.40;99.90;10.10;99013.00;;;;4994872;28;20165;-68
2021/12/28 04:43:55;;;;;;;0.47;0.47;;;10.30;99.90;10.20;99011.00;;;;5010259;28;20185;-67
2021/12/28 04:46:32;;;;;;;2.50;0.37;;;10.30;99.90;10.20;99013.00;;;;5010580;28;20184;-67
2021/12/28 04:49:12;;;;;;;2.30;1.93;;;10.30;99.90;10.10;99013.00;;;;4994304;28;20642;-67
2021/12/28 04:51:46;;;;;;;0.40;0.40;;;10.30;99.90;10.40;99006.00;;;;4994463;28;20444;-67
2021/12/28 04:54:20;;;;;;;0.73;0.73;;;10.40;99.90;10.10;98999.00;;;;4995517;28;20271;-67
2021/12/28 04:56:57;;;;;;;0.63;0.50;;;10.30;99.90;10.20;99014.00;;;;4995676;28;20685;-67
2021/12/28 04:59:35;;;;;;;3.87;0.87;;;10.30;99.90;10.10;99005.00;;;;4994264;28;20188;-67
2021/12/28 05:02:12;;;;;;;1.60;0.50;;;10.30;99.90;10.10;99009.00;;;;5010585;28;20599;-67
2021/12/28 05:04:48;;;;;;;0.30;0.30;;;10.30;99.90;10.10;98981.00;;;;5010709;28;20219;-67
2021/12/28 05:07:22;;;;;;;2.33;0.73;;;10.30;99.90;10.10;99016.00;;;;4994957;28;20532;-67
2021/12/28 05:09:59;;;;;;;0.30;0.30;;;10.20;99.90;10.20;99020.00;;;;5010226;28;20182;-67
2021/12/28 05:12:39;;;;;;;0.70;0.63;;;10.30;99.90;10.30;99019.00;;;;5010318;28;20254;-67
2021/12/28 05:15:13;;;;;;;1.90;0.50;;;10.30;99.90;10.10;99005.00;;;;4995255;28;20182;-67
2021/12/28 05:17:53;;;;;;;0.40;0.40;;;10.30;99.90;10.10;99003.00;;;;5010346;28;20190;-67
2021/12/28 05:20:29;;;;;;;0.40;0.40;;;10.30;99.90;10.10;99008.00;;;;5009659;28;20176;-67
2021/12/28 05:23:06;;;;;;;0.60;0.50;;;10.20;99.90;10.20;99010.00;;;;4994880;28;20186;-67
2021/12/28 05:25:43;;;;;;;0.30;0.30;;;10.30;99.90;10.10;98972.00;;;;5009881;28;20167;-68
2021/12/28 05:28:18;;;;;;;0.30;0.30;;;10.20;99.90;10.20;98984.00;;;;4994764;28;20179;-68
2021/12/28 05:30:54;;;;;;;0.30;0.30;;;10.20;99.90;10.10;99001.00;;;;5010166;28;20179;-68
2021/12/28 05:33:28;;;;;;;0.60;0.50;;;10.20;99.90;10.10;98996.00;;;;4994913;28;20199;-67
2021/12/28 05:36:02;;;;;;;0.40;0.40;;;10.30;99.90;10.20;99002.00;;;;4994576;28;20184;-67
2021/12/28 05:38:36;;;;;;;0.40;0.40;;;10.30;99.90;10.10;99001.00;;;;5009995;28;20184;-67
2021/12/28 05:41:18;;;;;;;0.37;0.37;;;10.20;99.90;10.10;98999.00;;;;4994000;28;20175;-67
2021/12/28 05:43:54;;;;;;;0.40;0.40;;;10.20;99.90;10.10;98995.00;;;;5009599;28;20192;-67
2021/12/28 05:46:31;;;;;;;0.60;0.60;;;10.30;99.90;10.30;98998.00;;;;4994705;28;20203;-68
2021/12/28 05:49:03;;;;;;;0.60;0.60;;;10.20;99.90;10.20;98988.00;;;;5009463;28;20270;-68
2021/12/28 05:51:42;;;;;;;0.50;0.50;;;10.30;99.90;9.90;98994.00;;;;4993231;28;20257;-67
2021/12/28 05:54:19;;;;;;;0.40;0.40;;;10.20;99.90;10.10;98981.00;;;;4994235;28;20187;-68
2021/12/28 05:56:56;;;;;;;0.30;0.30;;;10.20;99.90;10.20;99001.00;;;;5009662;28;20188;-68
2021/12/28 05:59:33;;;;;;;0.73;0.73;;;10.30;99.90;10.10;99000.00;;;;5009327;28;20619;-68
2021/12/28 06:02:08;;;;;;;2.60;1.43;;;10.20;99.90;10.00;98980.00;;;;5009534;28;20192;-68
2021/12/28 06:04:48;;;;;;;3.57;2.63;;;10.20;99.90;9.90;98994.00;;;;5009248;28;20233;-68
2021/12/28 06:07:27;;;;;;;0.30;0.30;;;10.20;99.90;10.00;99000.00;;;;4994276;28;20262;-68
2021/12/28 06:10:03;;;;;;;0.40;0.40;;;10.20;99.90;10.00;99000.00;;;;5008804;28;20267;-67
2021/12/28 06:12:40;;;;;;;0.50;0.50;;;10.20;99.90;10.10;98962.00;;;;4994159;28;20334;-68
2021/12/28 06:15:12;;;;;;;0.43;0.40;;;10.30;99.90;10.20;98991.00;;;;5009437;28;20655;-68
2021/12/28 06:17:54;;;;;;;0.50;0.50;;;10.30;99.90;10.30;98989.00;;;;5009255;28;20176;-68
2021/12/28 06:20:31;;;;;;;5.20;1.33;;;10.30;99.90;10.20;98980.00;;;;5008083;28;20202;-68
2021/12/28 06:23:14;;;;;;;0.70;0.70;;;10.30;99.90;10.10;98983.00;;;;4994238;28;20330;-69
2021/12/28 06:25:47;;;;;;;0.43;0.43;;;10.30;99.90;10.20;98987.00;;;;4994198;28;20197;-68
2021/12/28 06:28:27;;;;;;;0.70;0.70;;;10.30;99.90;10.00;98993.00;;;;5009133;28;20179;-68
2021/12/28 06:30:56;;;;;;;0.53;0.53;;;10.20;99.90;10.10;98984.00;;;;5008914;28;20220;-68
2021/12/28 06:33:38;;;;;;;0.97;0.97;;;10.30;99.90;10.00;98983.00;;;;4993798;28;20688;-68
2021/12/28 06:36:17;;;;;;;0.30;0.30;;;10.20;99.90;10.20;98942.00;;;;5008257;28;20180;-68
2021/12/28 06:38:54;;;;;;;0.40;0.40;;;10.30;99.90;10.10;98979.00;;;;4994137;28;20191;-68
2021/12/28 06:41:33;;;;;;;0.80;0.60;;;10.30;99.90;10.00;98979.00;;;;5008932;28;20182;-68
2021/12/28 06:44:12;;;;;;;0.70;0.70;;;10.20;99.90;10.20;98979.00;;;;4994072;28;20253;-68
2021/12/28 06:46:47;;;;;;;1.07;1.07;;;10.30;99.90;10.20;98977.00;;;;5008854;28;20180;-68
2021/12/28 06:49:23;;;;;;;0.80;0.80;;;10.30;99.90;10.30;98957.00;;;;5008822;28;20229;-68
2021/12/28 06:52:00;;;;;;;1.47;1.47;;;10.40;99.90;10.00;98984.00;;;;5008691;28;20766;-68
2021/12/28 06:54:40;;;;;;;1.00;0.90;;;10.30;99.90;10.00;98981.00;;;;4996430;28;20196;-68
2021/12/28 06:57:17;;;;;;;0.53;0.53;;;10.30;99.90;10.20;98965.00;;;;4996331;28;20194;-68
2021/12/28 06:59:55;;;;;;;0.37;0.37;;;10.30;99.90;10.20;98968.00;;;;5013413;28;20279;-68
2021/12/28 07:02:34;;;;;;;0.50;0.50;;;10.40;99.90;10.30;98963.00;;;;5012166;28;20188;-68
2021/12/28 07:05:11;;;;;;;0.57;0.57;;;10.30;99.90;10.30;98971.00;;;;5012679;28;20644;-68
2021/12/28 07:07:51;;;;;;;1.03;1.03;;;10.40;99.90;10.40;98983.00;;;;4997412;28;20180;-68
2021/12/28 07:10:30;;;;;;;0.67;0.63;;;10.40;99.90;10.30;98973.00;;;;4997290;28;20234;-68
2021/12/28 07:13:04;;;;;;;1.97;1.80;;;10.40;99.90;10.20;98966.00;;;;5012549;28;20274;-68
2021/12/28 07:15:38;;;;;;;0.87;0.87;;;10.40;99.90;10.20;98963.00;;;;5012380;28;20719;-69
2021/12/28 07:18:12;;;;;;;1.17;0.80;;;10.40;99.90;10.20;98975.00;;;;5012329;28;20187;-68
2021/12/28 07:20:46;;;;;;;0.40;0.40;;;10.40;99.90;10.20;98969.00;;;;5012471;28;20185;-69
2021/12/28 07:23:18;;;;;;;1.57;1.53;;;10.40;99.90;10.20;98966.00;;;;4997106;28;20199;-68
2021/12/28 07:25:54;;;;;;;0.43;0.43;;;10.40;99.90;10.20;98962.00;;;;5012112;28;20192;-68
2021/12/28 07:28:34;;;;;;;0.80;0.80;;;10.40;99.90;10.20;98955.00;;;;5012285;28;20187;-68
2021/12/28 07:31:13;;;;;;;0.40;0.40;;;10.40;99.90;10.20;98973.00;;;;5011818;28;20593;-68
2021/12/28 07:33:48;;;;;;;0.87;0.70;;;10.40;99.90;10.20;98975.00;;;;4997151;28;20191;-68
2021/12/28 07:36:30;;;;;;;0.50;0.50;;;10.40;99.90;10.40;98966.00;;;;5011948;28;20214;-68
2021/12/28 07:39:04;;;;;;;0.60;0.60;;;10.50;99.90;10.20;98967.00;;;;5012386;28;20255;-68
2021/12/28 07:41:36;;;;;;;1.47;1.37;;;10.50;99.90;10.40;98930.00;;;;4996705;28;20286;-68
2021/12/28 07:44:13;;;;;;;0.40;0.40;;;10.50;99.90;10.20;98968.00;;;;5011046;28;20725;-68
2021/12/28 07:46:52;;;;;;;0.50;0.50;;;10.40;99.90;10.30;98971.00;;;;4995174;28;20182;-68
2021/12/28 07:49:35;;;;;;;0.80;0.80;;;10.50;99.90;10.60;98964.00;;;;5012120;28;20192;-69
2021/12/28 07:52:17;;;;;;;0.80;0.80;;;10.60;99.90;10.40;98952.00;;;;4996361;28;20765;-69
2021/12/28 07:54:55;;;;;;;0.40;0.40;;;10.50;99.90;10.40;98923.00;;;;4995698;28;20188;-68
2021/12/28 07:57:32;;;;;;;0.60;0.60;;;10.60;99.90;10.50;98967.00;;;;4995408;28;20181;-69
2021/12/28 08:00:14;;;;;;;0.93;0.93;;;10.50;99.90;10.40;98946.00;;;;5011397;28;20170;-69
2021/12/28 08:02:54;;;;;;;1.00;1.00;;;10.60;99.90;10.60;98953.00;;;;4996483;28;20536;-67
2021/12/28 08:05:31;;;;;;;0.90;0.90;;;10.60;99.90;10.70;98965.00;;;;5011573;28;20166;-67
2021/12/28 08:08:09;;;;;;;0.97;0.87;;;10.60;99.90;10.50;98951.00;;;;5011187;28;20265;-69
2021/12/28 08:10:46;;;;;;;0.70;0.70;;;10.60;99.90;10.50;98955.00;;;;5011915;28;20214;-69
2021/12/28 08:13:21;;;;;;;4.53;1.03;;;10.60;99.90;10.60;98966.00;;;;4996163;28;20221;-70
2021/12/28 08:16:00;;;;;;;0.47;0.47;;;10.60;99.90;10.50;98967.00;;;;4996220;28;20185;-68
2021/12/28 08:18:36;;;;;;;0.87;0.87;;;10.60;99.90;10.50;98964.00;;;;5011142;28;20181;-69
2021/12/28 08:21:12;;;;;;;0.53;0.53;;;10.60;99.90;10.40;98968.00;;;;5011091;28;20188;-70
2021/12/28 08:23:52;;;;;;;1.00;1.00;;;10.60;99.90;10.40;98955.00;;;;4995149;28;20179;-69
2021/12/28 08:26:28;;;;;;;1.60;1.50;;;10.60;99.90;10.60;98958.00;;;;5010882;28;20182;-69
2021/12/28 08:29:02;;;;;;;0.63;0.63;;;10.70;99.90;10.40;98943.00;;;;5010905;28;20209;-69
2021/12/28 08:31:39;;;;;;;0.50;0.50;;;10.60;99.90;10.40;98951.00;;;;5010621;28;20592;-69
2021/12/28 08:34:13;;;;;;;1.23;0.77;;;10.60;99.90;10.50;98949.00;;;;4994764;28;20222;-67
2021/12/28 08:36:52;;;;;;;0.60;0.60;;;10.60;99.90;10.40;98957.00;;;;4994724;28;20185;-70
2021/12/28 08:39:29;;;;;;;0.40;0.40;;;10.60;99.90;10.50;98944.00;;;;4994062;28;20231;-69
2021/12/28 08:42:04;;;;;;;0.70;0.70;;;10.60;99.90;10.50;98925.00;;;;5011316;28;20182;-68
2021/12/28 08:44:38;;;;;;;0.53;0.53;;;10.60;99.90;10.60;98944.00;;;;4995528;28;20194;-68
2021/12/28 08:47:11;;;;;;;0.93;0.93;;;10.70;99.90;10.70;98933.00;;;;5010256;28;20211;-70
2021/12/28 08:49:43;;;;;;;1.20;1.10;;;10.70;99.90;10.50;98938.00;;;;4994312;28;20193;-67
2021/12/28 08:52:23;;;;;;;0.50;0.50;;;10.70;99.90;10.50;98937.00;;;;4994199;28;20684;-69
2021/12/28 08:55:00;;;;;;;3.03;1.83;;;10.70;99.90;10.60;98930.00;;;;5010394;28;20168;-70
2021/12/28 08:57:37;;;;;;;1.70;0.70;;;10.70;99.90;10.40;98931.00;;;;5010707;28;20184;-69
2021/12/28 09:00:21;;;;;;;0.40;0.40;;;10.60;99.90;10.60;98934.00;;;;5010413;28;20649;-68
2021/12/28 09:03:07;;;;;;;0.50;0.50;;;10.60;99.90;10.80;98924.00;;;;4994276;28;20176;-70
2021/12/28 09:05:47;;;;;;;0.80;0.80;;;10.70;99.90;10.60;98919.00;;;;5009949;28;20652;-68
2021/12/28 09:08:26;;;;;;;0.50;0.50;;;10.70;99.90;10.60;98921.00;;;;5009943;28;20221;-69
2021/12/28 09:11:00;;;;;;;1.10;1.00;;;10.70;99.90;10.50;98917.00;;;;5010466;28;20156;-69
2021/12/28 09:13:31;;;;;;;0.50;0.50;;;10.70;99.90;10.80;98915.00;;;;4994671;28;20727;-70
2021/12/28 09:16:10;;;;;;;1.20;1.10;;;10.80;99.90;10.70;98905.00;;;;5009597;28;20184;-69
2021/12/28 09:18:45;;;;;;;0.93;0.93;;;10.80;99.90;10.50;98921.00;;;;4993701;28;20180;-69
2021/12/28 09:21:25;;;;;;;0.60;0.60;;;10.70;99.90;10.60;98914.00;;;;4993914;28;20306;-69
2021/12/28 09:24:01;;;;;;;0.60;0.60;;;10.80;99.90;11.00;98903.00;;;;5009876;28;20176;-70
2021/12/28 09:26:38;;;;;;;1.27;1.10;;;10.90;99.90;10.80;98867.00;;;;5009673;28;20639;-69
2021/12/28 09:29:17;;;;;;;0.63;0.63;;;10.90;99.90;10.70;98912.00;;;;5009951;28;20176;-69
2021/12/28 09:31:56;;;;;;;0.50;0.50;;;11.00;99.90;11.10;98912.00;;;;4994669;28;20212;-69
2021/12/28 09:34:31;;;;;;;0.50;0.50;;;11.00;99.90;11.40;98873.00;;;;5009750;28;20196;-69
2021/12/28 09:37:05;;;;;;;0.50;0.50;;;11.10;99.90;11.00;98899.00;;;;5009323;28;20676;-69
2021/12/28 09:39:42;;;;;;;0.70;0.70;;;11.10;99.90;10.90;98908.00;;;;4993417;28;20200;-68
2021/12/28 09:42:19;;;;;;;0.80;0.80;;;11.10;99.90;11.10;98909.00;;;;4993344;28;20231;-69
2021/12/28 09:44:58;;;;;;;0.60;0.60;;;11.10;99.90;11.30;98908.00;;;;5009449;28;20185;-68
2021/12/28 09:47:36;;;;;;;0.80;0.80;;;11.20;99.90;11.10;98911.00;;;;5009776;28;20183;-69
2021/12/28 09:50:20;;;;;;;0.60;0.60;;;11.20;99.90;11.40;98877.00;;;;5009969;28;20164;-69
2021/12/28 09:52:56;;;;;;;1.37;1.27;;;11.30;99.90;10.90;98903.00;;;;4994603;28;20211;-68
2021/12/28 09:55:29;;;;;;;0.57;0.57;;;11.10;99.90;11.00;98896.00;;;;4992992;28;20168;-68
2021/12/28 09:58:06;;;;;;;0.50;0.50;;;11.10;99.90;11.00;98898.00;;;;4993159;28;20272;-68
2021/12/28 10:00:42;;;;;;;0.50;0.50;;;11.00;99.90;11.10;98895.00;;;;4994081;28;20184;-68
2021/12/28 10:03:13;;;;;;;0.57;0.57;;;11.10;99.90;10.60;98866.00;;;;5009292;28;20646;-68
2021/12/28 10:05:47;;;;;;;0.53;0.53;;;11.00;99.90;10.60;98888.00;;;;4993180;28;20211;-68
2021/12/28 10:08:31;;;;;;;0.67;0.60;;;10.80;99.90;10.60;98888.00;;;;5009545;28;20187;-67
2021/12/28 10:11:04;;;;;;;0.50;0.50;;;10.80;99.90;11.10;98874.00;;;;4992734;28;20178;-67
2021/12/28 10:13:41;;;;;;;0.40;0.40;;;11.00;99.90;11.20;98890.00;;;;4994087;28;20222;-67
2021/12/28 10:16:20;;;;;;;0.50;0.50;;;11.20;99.90;10.70;98895.00;;;;4993751;28;20199;-66
2021/12/28 10:18:57;;;;;;;0.50;0.50;;;10.90;99.90;10.90;98889.00;;;;5009173;28;20172;-66
2021/12/28 10:33:32;;;;;;;0.50;0.50;;;10.70;99.90;10.30;98885.00;;;;5152408;27;20540;-67
2021/12/28 10:36:18;;;;;;;0.77;0.63;;;10.70;99.90;10.20;98890.00;;;;5133296;27;20196;-67
2021/12/28 10:38:57;;;;;;;3.40;1.40;;;10.60;99.90;10.10;98897.00;;;;5152299;27;20308;-67
2021/12/28 10:41:36;;;;;;;1.63;0.87;;;10.50;99.90;10.20;98906.00;;;;5150586;27;20193;-67
2021/12/28 10:44:12;;;;;;;3.40;1.67;;;10.50;99.90;10.30;98893.00;;;;5133678;27;20182;-67
2021/12/28 10:46:51;;;;;;;6.07;1.47;;;10.50;99.90;10.50;98886.00;;;;5115768;27;20187;-67
2021/12/28 10:49:44;;;;;;;7.10;2.90;;;10.60;99.90;10.30;98911.00;;;;5151153;27;20706;-67
2021/12/28 10:52:37;;;;;;;4.30;1.50;;;10.60;99.90;10.40;98894.00;;;;5151782;27;20198;-67
2021/12/28 10:55:22;;;;;;;2.27;1.77;;;10.70;99.90;10.60;98905.00;;;;5134436;27;20186;-68
2021/12/28 10:57:55;;;;;;;7.17;2.83;;;10.90;99.90;10.50;98891.00;;;;5152385;27;20171;-68
2021/12/28 11:00:43;;;;;;;13.93;4.53;;;10.90;99.90;10.60;98895.00;;;;5133807;27;20170;-68
2021/12/28 11:03:38;;;;;;;8.87;1.07;;;11.00;99.90;10.60;98862.00;;;;5133216;27;20634;-68
2021/12/28 11:06:34;;;;;;;13.23;2.83;;;11.00;99.90;10.60;98914.00;;;;5115777;27;20185;-68
2021/12/28 11:09:16;;;;;;;9.07;2.73;;;11.00;99.90;10.70;98903.00;;;;5115599;27;20191;-68
2021/12/28 11:11:52;;;;;;;16.53;4.23;;;11.00;99.90;10.60;98899.00;;;;5133033;27;20190;-68
2021/12/28 11:14:32;;;;;;;30.20;4.93;;;11.10;99.90;10.70;98887.00;;;;5133138;27;20202;-68
2021/12/28 11:17:12;;;;;;;21.07;4.20;;;11.10;99.90;10.80;98892.00;;;;5133470;27;20633;-68
2021/12/28 11:19:58;;;;;;;6.30;2.57;;;11.20;99.90;10.70;98873.00;;;;5133120;27;20176;-68
2021/12/28 11:22:34;;;;;;;5.93;1.63;;;11.20;99.90;10.90;98899.00;;;;5133274;27;20175;-68
2021/12/28 11:25:22;;;;;;;3.73;2.63;;;11.20;99.90;10.90;98905.00;;;;5116114;27;20229;-68
2021/12/28 11:28:22;;;;;;;17.97;2.97;;;11.20;99.90;10.90;98892.00;;;;5151311;27;20204;-68
2021/12/28 11:31:31;;;;;;;7.83;2.50;;;11.30;99.90;10.90;98888.00;;;;5151259;27;20187;-68
2021/12/28 11:34:42;;;;;;;9.23;1.63;;;11.40;99.90;10.90;98891.00;;;;5124070;27;20214;-68
2021/12/28 11:37:23;;;;;;;14.50;3.67;;;11.40;99.90;11.00;98854.00;;;;5150769;27;20205;-68
2021/12/28 11:40:00;;;;;;;15.77;3.60;;;11.50;99.90;11.00;98892.00;;;;5132816;27;20234;-68
2021/12/28 11:42:39;;;;;;;3.43;2.17;;;11.50;99.90;10.80;98912.00;;;;5132080;27;20161;-68
2021/12/28 11:45:15;;;;;;;8.67;3.27;;;11.40;99.90;11.10;98909.00;;;;5118851;27;20523;-68
2021/12/28 11:47:54;;;;;;;11.73;4.40;;;11.50;99.90;11.20;98896.00;;;;5118715;27;20193;-68
2021/12/28 11:50:25;;;;;;;4.17;1.53;;;11.60;99.90;11.30;98888.00;;;;5118205;27;20188;-67
2021/12/28 11:53:02;;;;;;;8.53;2.63;;;11.60;99.90;11.10;98897.00;;;;5135175;27;20253;-68
2021/12/28 11:55:41;;;;;;;2.83;1.80;;;11.60;99.90;11.00;98861.00;;;;5118688;27;20622;-68
2021/12/28 11:58:15;;;;;;;11.73;2.83;;;11.50;99.90;11.10;98843.00;;;;5119551;27;20190;-68
2021/12/28 12:00:52;;;;;;;10.93;3.23;;;11.50;99.90;10.90;98887.00;;;;5136953;27;20177;-68